Time;durP1;ratioP1;P1;durP2;ratioP2;P2;SDS_P1;SDS_P2;PMS_P1;PMS_P2;Temp;Humidity;BMP_temperature;BMP_pressure;BME280_temperature;BME280_humidity;BME280_pressure;Samples;Min_cycle;Max_cycle;Signal;HPM_P1;HPM_P2
2022/11/28 00:01:26;;;;;;;9.20;8.30;;;;;;;4.11;100.00;99992.28;5002674;28;20230;-67
2022/11/28 00:03:51;;;;;;;10.00;8.47;;;;;;;3.88;100.00;99984.44;5012652;28;20186;-67
2022/11/28 00:06:17;;;;;;;8.57;7.67;;;;;;;3.82;100.00;99993.94;5024672;28;20202;-67
2022/11/28 00:08:43;;;;;;;8.93;7.77;;;;;;;3.79;100.00;99982.16;5030929;28;20190;-66
2022/11/28 00:11:10;;;;;;;9.43;8.43;;;;;;;3.84;100.00;99984.56;5030164;28;20225;-66
2022/11/28 00:13:36;;;;;;;9.47;8.47;;;;;;;3.89;100.00;99982.72;5021919;28;20211;-66
2022/11/28 00:16:04;;;;;;;9.47;8.47;;;;;;;3.99;100.00;99990.91;5029749;28;20313;-67
2022/11/28 00:18:29;;;;;;;11.27;8.77;;;;;;;4.07;100.00;99988.16;5010351;28;20182;-66
2022/11/28 00:21:03;;;;;;;9.00;8.10;;;;;;;4.21;100.00;99991.13;5027340;28;20751;-67
2022/11/28 00:23:29;;;;;;;8.80;7.90;;;;;;;4.28;100.00;99987.53;5021873;28;20226;-66
2022/11/28 00:26:20;;;;;;;9.33;8.40;;;;;;;4.15;100.00;99979.41;5031746;28;20273;-67
2022/11/28 00:28:45;;;;;;;10.80;8.23;;;;;;;4.32;100.00;99978.06;5021238;28;20190;-67
2022/11/28 00:31:18;;;;;;;9.20;7.87;;;;;;;4.10;100.00;99981.25;4989652;28;20229;-67
2022/11/28 00:33:44;;;;;;;9.83;8.80;;;;;;;4.27;100.00;99975.66;5023332;28;20748;-66
2022/11/28 00:36:11;;;;;;;9.33;8.33;;;;;;;4.09;100.00;99971.94;5011275;28;20210;-67
2022/11/28 00:38:36;;;;;;;9.37;8.47;;;;;;;4.12;100.00;99971.00;5031262;28;20657;-66
2022/11/28 00:41:04;;;;;;;10.57;8.33;;;;;;;4.12;100.00;99969.31;5028903;28;20303;-67
2022/11/28 00:43:30;;;;;;;12.13;9.03;;;;;;;4.22;100.00;99971.56;5021700;28;20722;-66
2022/11/28 00:45:56;;;;;;;8.87;8.07;;;;;;;4.18;100.00;99971.69;5031491;28;20182;-67
2022/11/28 00:48:22;;;;;;;9.37;8.40;;;;;;;4.08;100.00;99964.34;5046750;28;20648;-67
2022/11/28 00:50:48;;;;;;;8.83;7.87;;;;;;;4.12;100.00;99965.94;5026640;28;20222;-66
2022/11/28 00:53:13;;;;;;;10.37;7.70;;;;;;;4.09;100.00;99966.03;5024281;28;20265;-67
2022/11/28 00:55:39;;;;;;;10.47;8.07;;;;;;;3.89;100.00;99967.44;5031413;28;20264;-66
2022/11/28 00:58:05;;;;;;;10.20;8.33;;;;;;;3.93;100.00;99956.31;5018681;28;20221;-66
2022/11/28 01:00:30;;;;;;;8.47;7.57;;;;;;;4.08;100.00;99956.72;5024471;28;20321;-66
2022/11/28 01:02:56;;;;;;;9.93;7.53;;;;;;;3.88;100.00;99951.34;5043007;28;20177;-66
2022/11/28 01:05:21;;;;;;;9.87;7.50;;;;;;;3.87;100.00;99964.94;5031098;28;20205;-66
2022/11/28 01:07:46;;;;;;;9.37;8.27;;;;;;;3.75;100.00;99956.84;5031049;28;20186;-66
2022/11/28 01:10:12;;;;;;;8.23;7.43;;;;;;;3.76;100.00;99961.88;5022178;28;20226;-65
2022/11/28 01:12:37;;;;;;;10.17;8.23;;;;;;;3.80;100.00;99958.38;5025566;28;20178;-66
2022/11/28 01:15:08;;;;;;;9.30;8.33;;;;;;;3.89;100.00;99957.28;5030265;28;20182;-66
2022/11/28 01:17:33;;;;;;;9.23;7.80;;;;;;;3.91;100.00;99958.06;5030756;28;20605;-66
2022/11/28 01:19:58;;;;;;;9.20;8.23;;;;;;;3.83;100.00;99958.28;5031085;28;20202;-67
2022/11/28 01:22:24;;;;;;;8.57;7.50;;;;;;;3.83;100.00;99953.22;5036674;28;20296;-67
2022/11/28 01:24:49;;;;;;;9.17;7.90;;;;;;;3.74;100.00;99938.19;5030870;28;20356;-66
2022/11/28 01:27:14;;;;;;;8.53;7.60;;;;;;;3.82;100.00;99941.34;5030774;28;20194;-67
2022/11/28 01:29:40;;;;;;;8.60;7.67;;;;;;;3.91;100.00;99936.84;5030983;28;20214;-67
2022/11/28 01:32:05;;;;;;;8.50;7.63;;;;;;;3.97;100.00;99931.59;5038995;28;20308;-66
2022/11/28 01:34:30;;;;;;;8.40;7.60;;;;;;;3.78;100.00;99937.22;5034677;28;20541;-66
2022/11/28 01:36:56;;;;;;;8.87;7.60;;;;;;;3.61;100.00;99931.78;5034247;28;20737;-66
2022/11/28 01:39:21;;;;;;;9.23;8.03;;;;;;;3.57;100.00;99922.59;5034453;28;20186;-66
2022/11/28 01:41:46;;;;;;;10.20;8.20;;;;;;;3.53;100.00;99927.75;5038014;28;20221;-66
2022/11/28 01:44:11;;;;;;;10.33;7.80;;;;;;;3.77;100.00;99917.75;5036489;28;20178;-66
2022/11/28 01:46:37;;;;;;;9.03;8.13;;;;;;;3.75;100.00;99924.59;5034697;28;20197;-66
2022/11/28 01:49:14;;;;;;;10.13;7.80;;;;;;;3.68;100.00;99913.78;5034502;28;20174;-66
2022/11/28 01:51:48;;;;;;;8.47;7.67;;;;;;;3.63;100.00;99915.59;5020189;28;20349;-66
2022/11/28 01:54:15;;;;;;;8.27;7.37;;;;;;;3.74;100.00;99915.28;5020541;28;20582;-66
2022/11/28 01:56:51;;;;;;;8.47;7.67;;;;;;;3.75;100.00;99908.50;5009871;28;20194;-67
2022/11/28 01:59:19;;;;;;;9.23;7.93;;;;;;;3.74;100.00;99905.13;5034488;28;20183;-66
2022/11/28 02:01:45;;;;;;;9.27;8.37;;;;;;;3.64;100.00;99911.38;5020124;28;20249;-66
2022/11/28 02:04:12;;;;;;;9.63;7.97;;;;;;;3.64;100.00;99902.00;5034889;28;20576;-66
2022/11/28 02:06:38;;;;;;;12.13;8.70;;;;;;;3.58;100.00;99909.00;5015663;28;20202;-66
2022/11/28 02:09:05;;;;;;;12.20;8.87;;;;;;;3.64;100.00;99899.47;5034006;28;20681;-66
2022/11/28 02:11:56;;;;;;;10.10;8.67;;;;;;;3.44;100.00;99892.41;5017896;28;20305;-67
2022/11/28 02:14:31;;;;;;;9.60;8.13;;;;;;;3.44;100.00;99889.88;5033770;28;20292;-66
2022/11/28 02:17:03;;;;;;;8.97;8.07;;;;;;;3.41;100.00;99894.22;5015818;28;20231;-66
2022/11/28 02:20:09;;;;;;;10.30;8.53;;;;;;;3.39;100.00;99896.81;5034326;28;20204;-66
2022/11/28 02:22:47;;;;;;;10.40;8.33;;;;;;;3.56;100.00;99883.63;5006019;28;20224;-66
2022/11/28 02:25:32;;;;;;;9.87;8.63;;;;;;;3.68;100.00;99895.97;5033944;28;20238;-66
2022/11/28 02:28:22;;;;;;;10.07;9.00;;;;;;;3.69;100.00;99882.34;5009892;28;20182;-66
2022/11/28 02:30:57;;;;;;;10.77;8.13;;;;;;;3.66;100.00;99877.38;5021281;28;20642;-66
2022/11/28 02:33:37;;;;;;;9.47;8.47;;;;;;;3.70;100.00;99884.03;5031920;28;20268;-66
2022/11/28 02:36:15;;;;;;;9.03;7.93;;;;;;;3.65;100.00;99878.25;5021557;28;20174;-66
2022/11/28 02:38:51;;;;;;;9.40;8.40;;;;;;;3.81;100.00;99883.72;5015504;28;20188;-67
2022/11/28 02:41:34;;;;;;;9.80;8.80;;;;;;;3.61;100.00;99880.91;5022717;28;20240;-66
2022/11/28 02:44:12;;;;;;;10.07;8.70;;;;;;;3.66;100.00;99882.47;5032573;28;20210;-67
2022/11/28 02:47:05;;;;;;;9.20;8.30;;;;;;;3.71;100.00;99878.06;5032898;28;20194;-66
2022/11/28 02:49:41;;;;;;;10.03;8.80;;;;;;;3.80;100.00;99878.69;5000951;28;20187;-66
2022/11/28 02:52:15;;;;;;;10.97;8.97;;;;;;;3.83;100.00;99865.84;5001622;28;20279;-66
2022/11/28 02:54:42;;;;;;;11.70;9.83;;;;;;;3.77;100.00;99874.50;5007882;28;20189;-66
2022/11/28 02:57:07;;;;;;;10.33;8.97;;;;;;;3.65;100.00;99873.16;5031063;28;20190;-66
2022/11/28 02:59:35;;;;;;;9.30;8.10;;;;;;;3.58;100.00;99858.13;5031960;28;20204;-66
2022/11/28 03:02:02;;;;;;;10.03;9.03;;;;;;;3.58;100.00;99863.22;5022172;28;20232;-66
2022/11/28 03:04:51;;;;;;;10.97;8.23;;;;;;;3.47;100.00;99853.34;5032145;28;20201;-66
2022/11/28 03:07:53;;;;;;;13.17;9.97;;;;;;;3.35;100.00;99863.00;5011482;28;20191;-66
2022/11/28 03:10:37;;;;;;;11.17;9.57;;;;;;;3.42;100.00;99862.81;5016177;28;20295;-66
2022/11/28 03:13:17;;;;;;;13.70;8.87;;;;;;;3.31;100.00;99855.50;5031340;28;20178;-66
2022/11/28 03:16:09;;;;;;;10.17;9.17;;;;;;;3.30;100.00;99853.81;5031714;28;20182;-66
2022/11/28 03:18:38;;;;;;;12.70;8.97;;;;;;;3.37;100.00;99847.69;5032874;28;20177;-67
2022/11/28 03:21:13;;;;;;;10.87;9.50;;;;;;;3.34;100.00;99846.06;5022257;28;20624;-66
2022/11/28 03:23:50;;;;;;;10.40;8.97;;;;;;;3.38;100.00;99847.63;5031739;28;20569;-66
2022/11/28 03:26:31;;;;;;;10.83;9.40;;;;;;;3.32;100.00;99847.00;5032485;28;20545;-66
2022/11/28 03:29:08;;;;;;;10.63;9.23;;;;;;;3.22;100.00;99846.41;5012683;28;20277;-66
2022/11/28 03:31:39;;;;;;;10.67;9.57;;;;;;;3.26;100.00;99847.16;5001604;28;20313;-66
2022/11/28 03:34:10;;;;;;;11.57;8.90;;;;;;;3.39;100.00;99849.31;5028338;28;20240;-66
2022/11/28 03:36:48;;;;;;;10.10;9.10;;;;;;;3.45;100.00;99838.13;5011154;28;20609;-66
2022/11/28 03:39:18;;;;;;;11.57;9.60;;;;;;;3.43;100.00;99829.72;5015117;28;20252;-66
2022/11/28 03:41:53;;;;;;;9.93;8.83;;;;;;;3.27;100.00;99816.63;5021498;28;20226;-66
2022/11/28 03:44:26;;;;;;;11.80;10.13;;;;;;;3.26;100.00;99816.66;5030901;28;20178;-66
2022/11/28 03:46:55;;;;;;;12.00;10.07;;;;;;;3.25;100.00;99810.75;5014037;28;20188;-66
2022/11/28 03:49:32;;;;;;;11.60;9.60;;;;;;;3.21;100.00;99812.56;5012573;28;20227;-66
2022/11/28 03:52:02;;;;;;;12.47;10.00;;;;;;;3.38;100.00;99816.31;5002695;28;20280;-66
2022/11/28 03:54:42;;;;;;;10.03;9.00;;;;;;;3.30;100.00;99819.06;5014721;28;20642;-66
2022/11/28 03:57:14;;;;;;;10.33;9.23;;;;;;;3.21;100.00;99816.78;5031587;28;20252;-66
2022/11/28 03:59:45;;;;;;;9.90;8.90;;;;;;;3.15;100.00;99810.19;5014438;28;20196;-66
2022/11/28 04:02:13;;;;;;;12.40;9.50;;;;;;;3.12;100.00;99801.81;4960798;28;20228;-66
2022/11/28 04:04:49;;;;;;;11.53;9.73;;;;;;;3.08;100.00;99801.06;5012233;28;20188;-66
2022/11/28 04:07:23;;;;;;;11.50;9.73;;;;;;;3.07;100.00;99794.31;5010296;28;20552;-66
2022/11/28 04:10:12;;;;;;;13.13;9.60;;;;;;;3.08;100.00;99798.53;5010924;28;20287;-66
2022/11/28 04:13:05;;;;;;;10.73;9.63;;;;;;;3.22;100.00;99806.59;5004640;28;20308;-66
2022/11/28 04:15:38;;;;;;;12.00;10.30;;;;;;;3.30;100.00;99813.16;5008320;28;20233;-66
2022/11/28 04:18:19;;;;;;;11.40;9.87;;;;;;;3.34;100.00;99805.38;5013571;28;20213;-67
2022/11/28 04:20:51;;;;;;;11.17;9.87;;;;;;;3.39;100.00;99810.34;5021180;28;20707;-66
2022/11/28 04:23:19;;;;;;;9.63;8.57;;;;;;;3.38;100.00;99817.13;5014221;28;20173;-66
2022/11/28 04:25:51;;;;;;;10.03;9.03;;;;;;;3.54;100.00;99814.16;5014181;28;20178;-66
2022/11/28 04:28:21;;;;;;;10.63;9.53;;;;;;;3.65;100.00;99803.66;5014643;28;20258;-65
2022/11/28 04:30:49;;;;;;;10.30;9.30;;;;;;;3.57;100.00;99808.94;4994297;28;20340;-66
2022/11/28 04:33:17;;;;;;;11.20;9.60;;;;;;;3.58;100.00;99815.69;4993408;28;20270;-66
2022/11/28 04:35:48;;;;;;;9.87;8.87;;;;;;;3.59;100.00;99808.94;5010814;28;20186;-66
2022/11/28 04:38:14;;;;;;;18.20;10.70;;;;;;;3.62;100.00;99802.03;4998349;28;20206;-66
2022/11/28 04:40:50;;;;;;;13.17;9.70;;;;;;;3.70;100.00;99800.06;4984065;28;20242;-66
2022/11/28 04:43:48;;;;;;;11.50;9.43;;;;;;;3.47;100.00;99795.69;5007320;28;20268;-66
2022/11/28 04:46:18;;;;;;;11.53;9.43;;;;;;;3.46;100.00;99801.66;4951247;28;20632;-66
2022/11/28 04:48:43;;;;;;;13.60;10.07;;;;;;;3.52;100.00;99806.56;4924464;29;20197;-66
2022/11/28 04:51:39;;;;;;;11.07;9.13;;;;;;;3.54;100.00;99812.41;4938528;28;20236;-66
2022/11/28 04:54:13;;;;;;;13.60;9.17;;;;;;;3.62;100.00;99806.28;4937370;29;20761;-67
2022/11/28 04:56:48;;;;;;;10.67;9.57;;;;;;;3.64;100.00;99801.97;4961703;28;20222;-66
2022/11/28 04:59:14;;;;;;;10.00;9.00;;;;;;;3.61;100.00;99800.38;4920734;29;20189;-66
2022/11/28 05:01:44;;;;;;;10.57;9.13;;;;;;;3.54;100.00;99791.25;4950258;28;20230;-66
2022/11/28 05:04:11;;;;;;;10.87;9.57;;;;;;;3.50;100.00;99792.25;4970587;28;20188;-66
2022/11/28 05:06:36;;;;;;;9.87;8.63;;;;;;;3.47;100.00;99793.13;4970740;28;20211;-65
2022/11/28 05:09:03;;;;;;;10.40;9.17;;;;;;;3.34;100.00;99792.69;4973556;28;20247;-65
2022/11/28 05:11:29;;;;;;;11.00;8.90;;;;;;;3.25;100.00;99787.03;4964134;28;20231;-66
2022/11/28 05:13:55;;;;;;;10.83;9.33;;;;;;;3.29;100.00;99791.16;4958126;28;20191;-66
2022/11/28 05:16:21;;;;;;;10.97;8.77;;;;;;;3.26;100.00;99783.63;4972826;28;20219;-66
2022/11/28 05:18:46;;;;;;;10.17;8.13;;;;;;;3.13;100.00;99780.59;4957611;28;20176;-66
2022/11/28 05:21:12;;;;;;;16.40;9.73;;;;;;;3.16;100.00;99786.44;4964064;28;20242;-66
2022/11/28 05:23:40;;;;;;;10.57;9.13;;;;;;;3.21;100.00;99788.81;5028403;28;20217;-66
2022/11/28 05:26:10;;;;;;;9.57;8.57;;;;;;;3.34;100.00;99786.78;5034779;28;20181;-66
2022/11/28 05:28:35;;;;;;;11.87;9.03;;;;;;;3.42;100.00;99784.00;5034633;28;20186;-66
2022/11/28 05:31:01;;;;;;;9.87;8.10;;;;;;;3.58;100.00;99786.91;5022374;28;20225;-65
2022/11/28 05:33:31;;;;;;;10.57;9.10;;;;;;;3.62;100.00;99765.56;5034280;28;20581;-66
2022/11/28 05:36:02;;;;;;;9.27;8.20;;;;;;;3.47;100.00;99767.69;5014103;28;20554;-66
2022/11/28 05:38:27;;;;;;;9.60;8.60;;;;;;;3.41;100.00;99778.06;5010868;28;20183;-67
2022/11/28 05:40:52;;;;;;;11.90;8.77;;;;;;;3.48;100.00;99786.34;5023983;28;20222;-66
2022/11/28 05:43:18;;;;;;;9.43;8.30;;;;;;;3.44;100.00;99787.34;5034152;28;20178;-67
2022/11/28 05:45:43;;;;;;;10.97;9.50;;;;;;;3.58;100.00;99777.56;5028391;28;20226;-66
2022/11/28 05:48:09;;;;;;;9.87;8.87;;;;;;;3.57;100.00;99787.78;5032689;28;20182;-67
2022/11/28 05:50:38;;;;;;;12.57;8.30;;;;;;;3.64;100.00;99789.25;5024287;28;20296;-66
2022/11/28 05:53:03;;;;;;;11.70;9.97;;;;;;;3.47;100.00;99785.50;5016881;28;20240;-67
2022/11/28 05:55:28;;;;;;;10.70;9.03;;;;;;;3.39;100.00;99784.91;5034472;28;20533;-67
2022/11/28 05:57:54;;;;;;;8.97;8.07;;;;;;;3.56;100.00;99779.34;5032758;28;20209;-66
2022/11/28 06:00:20;;;;;;;10.80;9.10;;;;;;;3.67;100.00;99794.25;5023898;28;20181;-67
2022/11/28 06:02:45;;;;;;;11.90;9.63;;;;;;;3.66;100.00;99790.88;5022535;28;20667;-66
2022/11/28 06:05:11;;;;;;;17.90;9.50;;;;;;;3.63;100.00;99795.22;4996960;28;20199;-66
2022/11/28 06:07:36;;;;;;;10.70;9.27;;;;;;;3.60;100.00;99791.06;5024746;28;20194;-66
2022/11/28 06:10:01;;;;;;;13.93;10.67;;;;;;;3.65;100.00;99785.84;5032808;28;20233;-66
2022/11/28 06:12:26;;;;;;;12.07;9.43;;;;;;;3.63;100.00;99783.31;5006814;28;20661;-66
2022/11/28 06:14:52;;;;;;;12.87;9.77;;;;;;;3.49;100.00;99773.59;5033924;28;20182;-67
2022/11/28 06:17:17;;;;;;;13.10;8.57;;;;;;;3.53;100.00;99772.59;5032860;28;20213;-67
2022/11/28 06:19:42;;;;;;;17.70;10.17;;;;;;;3.53;100.00;99781.97;5015620;28;20265;-66
2022/11/28 06:22:09;;;;;;;13.03;9.53;;;;;;;3.40;100.00;99786.59;5022768;28;20226;-66
2022/11/28 06:24:34;;;;;;;13.57;10.07;;;;;;;3.38;100.00;99791.69;5016277;28;20293;-66
2022/11/28 06:26:59;;;;;;;13.73;9.20;;;;;;;3.39;100.00;99785.75;5033326;28;20273;-67
2022/11/28 06:29:25;;;;;;;12.30;9.37;;;;;;;3.30;100.00;99786.03;5033669;28;20181;-67
2022/11/28 06:31:50;;;;;;;22.13;9.77;;;;;;;3.12;100.00;99782.31;5022656;28;20222;-67
2022/11/28 06:34:15;;;;;;;16.53;9.67;;;;;;;3.16;100.00;99778.81;5033432;28;20263;-67
2022/11/28 06:36:42;;;;;;;10.90;9.30;;;;;;;3.15;100.00;99777.16;5015274;28;20201;-66
2022/11/28 06:39:12;;;;;;;15.50;8.97;;;;;;;3.09;100.00;99773.94;5032280;28;20189;-67
2022/11/28 06:41:37;;;;;;;12.93;9.53;;;;;;;3.26;100.00;99783.63;5004909;28;20221;-66
2022/11/28 06:44:03;;;;;;;16.77;10.27;;;;;;;3.20;100.00;99780.38;5015421;28;20680;-66
2022/11/28 06:46:28;;;;;;;17.90;10.07;;;;;;;3.04;100.00;99779.16;5032833;28;20198;-67
2022/11/28 06:48:53;;;;;;;15.03;11.37;;;;;;;3.07;100.00;99782.44;5033190;28;20541;-66
2022/11/28 06:51:19;;;;;;;15.07;10.07;;;;;;;3.10;100.00;99784.06;5005655;28;20230;-67
2022/11/28 06:53:44;;;;;;;12.97;9.57;;;;;;;3.15;100.00;99777.16;5032749;28;20190;-66
2022/11/28 06:56:14;;;;;;;17.80;10.13;;;;;;;3.09;100.00;99772.25;5033482;28;20626;-67
2022/11/28 06:58:39;;;;;;;17.20;11.63;;;;;;;3.00;100.00;99780.97;5032587;28;20174;-66
2022/11/28 07:01:14;;;;;;;17.77;10.70;;;;;;;3.14;100.00;99783.09;5021718;28;20312;-66
2022/11/28 07:03:39;;;;;;;18.53;12.10;;;;;;;3.31;100.00;99799.56;5012113;28;20178;-68
2022/11/28 07:06:06;;;;;;;34.73;23.40;;;;;;;3.43;100.00;99796.66;5032125;28;20228;-66
2022/11/28 07:08:32;;;;;;;17.70;11.30;;;;;;;3.36;100.00;99785.84;5031233;28;20197;-67
2022/11/28 07:11:05;;;;;;;17.27;10.60;;;;;;;3.36;100.00;99790.09;5001399;28;20222;-67
2022/11/28 07:13:30;;;;;;;16.30;11.30;;;;;;;3.44;100.00;99798.31;5011859;28;20201;-67
2022/11/28 07:15:56;;;;;;;14.07;10.93;;;;;;;3.44;100.00;99803.41;5031846;28;20181;-68
2022/11/28 07:18:21;;;;;;;15.40;11.87;;;;;;;3.59;100.00;99802.13;5032509;28;20264;-67
2022/11/28 07:20:46;;;;;;;16.47;10.90;;;;;;;3.64;100.00;99815.53;5016061;28;20222;-68
2022/11/28 07:23:12;;;;;;;14.73;11.10;;;;;;;3.70;100.00;99817.06;5026319;28;20186;-67
2022/11/28 07:25:37;;;;;;;17.03;11.17;;;;;;;3.75;100.00;99801.66;5032336;28;20261;-68
2022/11/28 07:28:02;;;;;;;14.30;11.57;;;;;;;3.70;100.00;99799.25;5031561;28;20182;-68
2022/11/28 07:30:28;;;;;;;19.63;10.13;;;;;;;3.64;100.00;99804.53;5016758;28;20249;-67
2022/11/28 07:32:53;;;;;;;23.37;12.73;;;;;;;3.65;100.00;99796.03;5028251;28;20180;-67
2022/11/28 07:35:18;;;;;;;17.90;10.80;;;;;;;3.81;100.00;99796.38;5031898;28;20178;-67
2022/11/28 07:37:44;;;;;;;13.20;10.87;;;;;;;3.76;100.00;99798.22;5027485;28;20190;-67
2022/11/28 07:40:09;;;;;;;15.40;11.23;;;;;;;3.90;100.00;99801.16;4994140;28;20229;-65
2022/11/28 07:42:35;;;;;;;15.87;11.40;;;;;;;3.92;100.00;99798.56;5021107;28;20203;-61
2022/11/28 07:45:00;;;;;;;13.67;9.97;;;;;;;3.93;100.00;99802.78;5032385;28;20212;-65
2022/11/28 07:47:26;;;;;;;16.47;11.57;;;;;;;3.93;100.00;99808.72;5030527;28;20629;-66
2022/11/28 07:49:51;;;;;;;19.90;11.60;;;;;;;4.07;100.00;99813.34;5032479;28;20186;-65
2022/11/28 07:52:17;;;;;;;20.47;10.50;;;;;;;4.11;100.00;99807.28;5019280;28;20646;-65
2022/11/28 07:54:42;;;;;;;12.97;10.77;;;;;;;4.23;100.00;99808.59;5011956;28;20194;-66
2022/11/28 07:57:07;;;;;;;18.53;11.23;;;;;;;4.25;100.00;99804.28;5030688;28;20199;-66
2022/11/28 07:59:33;;;;;;;18.40;10.33;;;;;;;4.18;100.00;99802.81;5032450;28;20186;-66
2022/11/28 08:01:58;;;;;;;14.43;10.53;;;;;;;4.24;100.00;99802.59;4991562;28;20225;-66
2022/11/28 08:04:23;;;;;;;19.33;10.80;;;;;;;4.27;100.00;99805.06;5032199;28;20185;-66
2022/11/28 08:06:48;;;;;;;19.00;11.10;;;;;;;4.32;100.00;99805.72;5031394;28;20202;-66
2022/11/28 08:09:14;;;;;;;17.80;10.97;;;;;;;4.46;100.00;99800.16;5032173;28;20233;-66
2022/11/28 08:11:40;;;;;;;16.37;9.97;;;;;;;4.46;100.00;99791.72;5020438;28;20226;-65
2022/11/28 08:14:05;;;;;;;19.57;10.90;;;;;;;4.43;100.00;99797.75;5031026;28;20668;-65
2022/11/28 08:16:31;;;;;;;22.70;10.47;;;;;;;4.55;100.00;99790.56;5020128;28;20616;-65
2022/11/28 08:19:00;;;;;;;14.17;10.00;;;;;;;4.54;100.00;99792.28;5031745;28;20528;-65
2022/11/28 08:21:29;;;;;;;12.60;10.23;;;;;;;4.55;100.00;99790.56;4987763;28;20234;-66
2022/11/28 08:23:57;;;;;;;14.03;11.00;;;;;;;4.38;100.00;99786.88;5014263;28;20261;-66
2022/11/28 08:26:24;;;;;;;17.80;11.67;;;;;;;4.41;100.00;99781.66;5029894;28;20185;-67
2022/11/28 08:28:52;;;;;;;14.90;10.20;;;;;;;4.18;100.00;99774.78;5014216;28;20189;-65
2022/11/28 08:31:19;;;;;;;18.57;11.43;;;;;;;4.20;100.00;99773.03;5000240;28;20328;-66
2022/11/28 08:33:46;;;;;;;20.03;11.83;;;;;;;4.10;100.00;99779.34;5031251;28;20626;-65
2022/11/28 08:36:14;;;;;;;23.83;12.03;;;;;;;4.42;100.00;99793.53;5013907;28;20183;-64
2022/11/28 08:38:40;;;;;;;19.50;11.83;;;;;;;4.49;100.00;99791.59;5026649;28;20207;-57
2022/11/28 08:41:17;;;;;;;19.20;10.50;;;;;;;4.55;100.00;99796.47;4994842;28;20312;-65
2022/11/28 08:43:43;;;;;;;14.43;10.60;;;;;;;4.53;100.00;99795.72;5030640;28;20183;-66
2022/11/28 08:46:11;;;;;;;17.00;10.63;;;;;;;4.61;100.00;99791.16;5031836;28;20251;-66
2022/11/28 08:48:38;;;;;;;15.47;10.47;;;;;;;4.69;100.00;99793.47;5031131;28;20179;-66
2022/11/28 08:51:05;;;;;;;17.27;10.10;;;;;;;4.88;100.00;99796.19;5019809;28;20249;-65
2022/11/28 08:53:31;;;;;;;25.53;13.93;;;;;;;5.01;100.00;99794.88;5013469;28;20206;-65
2022/11/28 08:55:56;;;;;;;13.93;10.20;;;;;;;4.80;100.00;99791.38;5013168;28;20532;-66
2022/11/28 08:58:22;;;;;;;16.60;10.93;;;;;;;4.96;100.00;99794.19;5030836;28;20694;-65
2022/11/28 09:00:47;;;;;;;15.43;9.50;;;;;;;4.87;100.00;99794.50;5020596;28;20229;-65
2022/11/28 09:03:15;;;;;;;21.47;9.97;;;;;;;4.80;100.00;99788.81;5010993;28;20184;-65
2022/11/28 09:05:44;;;;;;;27.17;11.27;;;;;;;4.74;100.00;99783.94;5019145;28;20225;-64
2022/11/28 09:08:09;;;;;;;20.53;11.13;;;;;;;4.75;100.00;99792.41;5012790;28;20195;-65
2022/11/28 09:10:36;;;;;;;19.60;12.03;;;;;;;4.78;100.00;99795.69;5020666;28;20234;-66
2022/11/28 09:13:01;;;;;;;17.37;9.80;;;;;;;4.77;100.00;99794.00;5030267;28;20182;-66
2022/11/28 09:15:27;;;;;;;16.67;10.97;;;;;;;4.76;100.00;99787.25;5031403;28;20183;-65
2022/11/28 09:17:52;;;;;;;19.67;10.90;;;;;;;4.83;100.00;99792.97;5030464;28;20208;-64
2022/11/28 09:20:17;;;;;;;39.87;21.13;;;;;;;4.96;100.00;99791.66;5003081;28;20537;-66
2022/11/28 09:22:43;;;;;;;17.73;11.43;;;;;;;5.00;100.00;99798.28;5029856;28;20258;-66
2022/11/28 09:25:09;;;;;;;15.53;9.80;;;;;;;4.95;100.00;99792.53;5031257;28;20188;-66
2022/11/28 09:27:34;;;;;;;17.13;9.57;;;;;;;4.62;100.00;99790.28;5012300;28;20194;-66
2022/11/28 09:29:59;;;;;;;16.20;10.07;;;;;;;4.87;100.00;99788.59;5030913;28;20197;-65
2022/11/28 09:32:25;;;;;;;14.37;9.73;;;;;;;4.88;100.00;99787.72;5019555;28;20749;-66
2022/11/28 09:34:50;;;;;;;20.93;10.87;;;;;;;4.93;100.00;99785.84;5028395;28;20174;-66
2022/11/28 09:37:15;;;;;;;16.50;9.53;;;;;;;5.25;100.00;99782.09;5027568;28;20569;-66
2022/11/28 09:39:41;;;;;;;14.07;9.87;;;;;;;5.38;100.00;99789.28;5031075;28;20188;-66
2022/11/28 09:42:12;;;;;;;10.53;8.80;;;;;;;5.48;100.00;99786.31;5019507;28;20334;-66
2022/11/28 09:44:47;;;;;;;9.57;8.53;;;;;;;5.46;100.00;99787.28;5031000;28;20291;-66
2022/11/28 09:47:30;;;;;;;9.77;8.77;;;;;;;5.59;100.00;99787.63;5030591;28;20191;-67
2022/11/28 09:50:09;;;;;;;9.30;8.40;;;;;;;5.63;100.00;99777.25;5019640;28;20184;-66
2022/11/28 09:52:56;;;;;;;9.80;8.60;;;;;;;5.71;100.00;99782.03;5004590;28;20226;-66
2022/11/28 09:55:38;;;;;;;8.83;7.80;;;;;;;5.84;100.00;99779.81;5014379;28;20277;-67
2022/11/28 09:58:11;;;;;;;9.83;8.27;;;;;;;5.72;100.00;99776.03;5032434;28;20201;-66
2022/11/28 10:00:46;;;;;;;9.83;8.60;;;;;;;5.56;100.00;99780.09;5005597;28;20271;-65
2022/11/28 10:03:35;;;;;;;9.37;8.47;;;;;;;5.79;100.00;99774.91;5016283;28;20587;-65
2022/11/28 10:06:21;;;;;;;9.83;8.77;;;;;;;5.87;100.00;99784.00;5014706;28;20294;-66
2022/11/28 10:08:58;;;;;;;10.53;8.33;;;;;;;5.80;100.00;99783.38;5032225;28;20185;-66
2022/11/28 10:11:41;;;;;;;11.30;8.60;;;;;;;5.85;100.00;99785.75;5020547;28;20223;-66
2022/11/28 10:14:25;;;;;;;10.73;8.00;;;;;;;5.82;100.00;99776.50;5013123;28;20196;-66
2022/11/28 10:17:23;;;;;;;12.67;8.40;;;;;;;5.76;100.00;99775.03;5028433;28;20266;-66
2022/11/28 10:19:55;;;;;;;10.40;8.03;;;;;;;6.00;100.00;99776.69;5034003;28;20182;-66
2022/11/28 10:22:30;;;;;;;8.13;7.37;;;;;;;5.69;100.00;99780.44;5000718;28;20229;-66
2022/11/28 10:25:02;;;;;;;13.13;8.50;;;;;;;5.91;100.00;99781.22;5015472;28;20568;-66
2022/11/28 10:27:34;;;;;;;9.50;8.60;;;;;;;5.78;100.00;99780.91;5014886;28;20192;-66
2022/11/28 10:30:16;;;;;;;10.87;8.67;;;;;;;6.06;100.00;99769.59;5033712;28;20529;-66
2022/11/28 10:32:49;;;;;;;11.27;9.07;;;;;;;6.15;100.00;99770.94;5014727;28;20236;-65
2022/11/28 10:35:32;;;;;;;10.40;9.30;;;;;;;6.11;100.00;99772.78;5031731;28;20209;-65
2022/11/28 10:37:58;;;;;;;13.10;9.20;;;;;;;6.25;100.00;99764.56;5015200;28;20208;-65
2022/11/28 10:40:45;;;;;;;11.10;8.97;;;;;;;5.97;100.00;99768.22;5023671;28;20230;-65
2022/11/28 10:43:16;;;;;;;10.97;8.50;;;;;;;6.17;100.00;99770.91;5032496;28;20190;-65
2022/11/28 10:46:03;;;;;;;11.80;9.60;;;;;;;5.78;100.00;99763.03;5015583;28;20213;-66
2022/11/28 10:48:55;;;;;;;13.37;10.93;;;;;;;5.40;100.00;99767.09;5014980;28;20362;-66
2022/11/28 10:51:48;;;;;;;12.00;9.83;;;;;;;5.10;100.00;99757.19;5019923;28;20678;-67
2022/11/28 10:54:43;;;;;;;11.13;10.03;;;;;;;4.99;100.00;99760.94;5032547;28;20242;-69
2022/11/28 10:57:16;;;;;;;11.33;10.00;;;;;;;4.92;100.00;99756.94;4948911;28;20214;-69
2022/11/28 11:00:00;;;;;;;14.77;10.90;;;;;;;4.90;100.00;99763.84;4998934;28;20207;-68
2022/11/28 11:02:30;;;;;;;12.77;10.83;;;;;;;4.99;100.00;99760.94;5017853;28;21464;-68
2022/11/28 11:04:56;;;;;;;16.13;11.50;;;;;;;4.97;100.00;99762.72;5029469;28;20204;-68
2022/11/28 11:07:31;;;;;;;11.87;10.73;;;;;;;4.98;100.00;99764.38;5032366;28;20243;-69
2022/11/28 11:10:19;;;;;;;12.23;10.77;;;;;;;5.10;100.00;99759.72;5031328;28;20219;-69
2022/11/28 11:12:45;;;;;;;11.30;10.20;;;;;;;5.25;100.00;99761.69;5002202;28;20262;-69
2022/11/28 11:15:40;;;;;;;12.17;10.90;;;;;;;5.41;100.00;99753.44;5030776;28;20272;-69
2022/11/28 11:18:21;;;;;;;14.17;12.00;;;;;;;5.65;100.00;99759.31;4990089;28;20234;-69
2022/11/28 11:20:47;;;;;;;14.20;11.57;;;;;;;5.95;100.00;99754.72;4964024;28;20234;-69
2022/11/28 11:23:21;;;;;;;13.63;11.50;;;;;;;5.82;100.00;99754.34;4990796;28;20661;-69
2022/11/28 11:25:51;;;;;;;13.17;11.40;;;;;;;5.55;100.00;99752.91;4991147;28;20242;-69
2022/11/28 11:28:38;;;;;;;13.00;10.80;;;;;;;5.46;100.00;99759.22;4974201;28;20206;-69
2022/11/28 11:31:13;;;;;;;13.60;11.70;;;;;;;5.40;100.00;99755.16;4959568;28;20231;-70
2022/11/28 11:33:39;;;;;;;11.83;10.73;;;;;;;5.56;100.00;99752.84;4971388;28;20196;-70
2022/11/28 11:36:20;;;;;;;11.57;10.47;;;;;;;5.66;100.00;99749.03;4955021;28;20199;-70
2022/11/28 11:38:45;;;;;;;12.73;11.43;;;;;;;5.57;100.00;99751.13;4954989;28;20187;-69
2022/11/28 11:41:20;;;;;;;11.87;10.67;;;;;;;5.46;100.00;99749.00;4961359;28;20239;-70